sensor_id;sensor_type;location;lat;lon;timestamp;P1;durP1;ratioP1;P2;durP2;ratioP2
7128;SDS011;3606;52.930;8.644;2023-07-22T00:00:43;15.90;;;10.73;;
7128;SDS011;3606;52.930;8.644;2023-07-22T00:03:09;15.30;;;10.70;;
7128;SDS011;3606;52.930;8.644;2023-07-22T00:05:34;14.03;;;10.10;;
7128;SDS011;3606;52.930;8.644;2023-07-22T00:08:00;18.70;;;11.20;;
7128;SDS011;3606;52.930;8.644;2023-07-22T00:10:25;20.60;;;11.37;;
7128;SDS011;3606;52.930;8.644;2023-07-22T00:12:51;16.90;;;10.30;;
7128;SDS011;3606;52.930;8.644;2023-07-22T00:15:16;13.17;;;10.10;;
7128;SDS011;3606;52.930;8.644;2023-07-22T00:17:42;18.70;;;10.03;;
7128;SDS011;3606;52.930;8.644;2023-07-22T00:20:08;17.50;;;9.87;;
7128;SDS011;3606;52.930;8.644;2023-07-22T00:22:39;16.40;;;10.23;;
7128;SDS011;3606;52.930;8.644;2023-07-22T00:25:11;17.57;;;10.37;;
7128;SDS011;3606;52.930;8.644;2023-07-22T00:27:38;16.33;;;9.83;;
7128;SDS011;3606;52.930;8.644;2023-07-22T00:30:05;18.07;;;10.07;;
7128;SDS011;3606;52.930;8.644;2023-07-22T00:32:31;20.87;;;10.63;;
7128;SDS011;3606;52.930;8.644;2023-07-22T00:34:57;16.07;;;9.73;;
7128;SDS011;3606;52.930;8.644;2023-07-22T00:37:23;16.40;;;9.87;;
7128;SDS011;3606;52.930;8.644;2023-07-22T00:39:49;19.97;;;9.07;;
7128;SDS011;3606;52.930;8.644;2023-07-22T00:42:14;18.33;;;10.00;;
7128;SDS011;3606;52.930;8.644;2023-07-22T00:44:40;15.43;;;9.90;;
7128;SDS011;3606;52.930;8.644;2023-07-22T00:47:05;18.23;;;10.23;;
7128;SDS011;3606;52.930;8.644;2023-07-22T00:49:31;16.17;;;9.00;;
7128;SDS011;3606;52.930;8.644;2023-07-22T00:51:58;14.57;;;9.73;;
7128;SDS011;3606;52.930;8.644;2023-07-22T00:54:27;12.40;;;9.27;;
7128;SDS011;3606;52.930;8.644;2023-07-22T00:56:53;15.60;;;8.60;;
7128;SDS011;3606;52.930;8.644;2023-07-22T00:59:19;14.57;;;10.20;;
7128;SDS011;3606;52.930;8.644;2023-07-22T01:01:45;15.93;;;9.53;;
7128;SDS011;3606;52.930;8.644;2023-07-22T01:04:13;13.97;;;9.10;;
7128;SDS011;3606;52.930;8.644;2023-07-22T01:06:41;15.63;;;9.17;;
7128;SDS011;3606;52.930;8.644;2023-07-22T01:09:08;14.73;;;8.43;;
7128;SDS011;3606;52.930;8.644;2023-07-22T01:11:34;15.77;;;9.63;;
7128;SDS011;3606;52.930;8.644;2023-07-22T01:14:00;18.47;;;9.90;;
7128;SDS011;3606;52.930;8.644;2023-07-22T01:16:26;16.47;;;8.73;;
7128;SDS011;3606;52.930;8.644;2023-07-22T01:18:53;15.90;;;8.90;;
7128;SDS011;3606;52.930;8.644;2023-07-22T01:21:20;18.43;;;8.53;;
7128;SDS011;3606;52.930;8.644;2023-07-22T01:23:47;17.57;;;8.97;;
7128;SDS011;3606;52.930;8.644;2023-07-22T01:26:13;17.27;;;8.73;;
7128;SDS011;3606;52.930;8.644;2023-07-22T01:28:39;14.03;;;8.93;;
7128;SDS011;3606;52.930;8.644;2023-07-22T01:31:05;16.90;;;8.37;;
7128;SDS011;3606;52.930;8.644;2023-07-22T01:33:31;15.30;;;7.90;;
7128;SDS011;3606;52.930;8.644;2023-07-22T01:35:57;18.53;;;8.87;;
7128;SDS011;3606;52.930;8.644;2023-07-22T01:38:23;12.13;;;8.23;;
7128;SDS011;3606;52.930;8.644;2023-07-22T01:40:48;12.57;;;8.40;;
7128;SDS011;3606;52.930;8.644;2023-07-22T01:43:14;15.30;;;8.33;;
7128;SDS011;3606;52.930;8.644;2023-07-22T01:45:40;14.63;;;8.23;;
7128;SDS011;3606;52.930;8.644;2023-07-22T01:48:05;15.03;;;8.53;;
7128;SDS011;3606;52.930;8.644;2023-07-22T01:50:31;16.97;;;8.20;;
7128;SDS011;3606;52.930;8.644;2023-07-22T01:52:57;14.63;;;8.17;;
7128;SDS011;3606;52.930;8.644;2023-07-22T01:55:23;11.93;;;7.90;;
7128;SDS011;3606;52.930;8.644;2023-07-22T01:57:48;12.73;;;8.13;;
7128;SDS011;3606;52.930;8.644;2023-07-22T02:00:14;14.17;;;8.27;;
7128;SDS011;3606;52.930;8.644;2023-07-22T02:02:40;15.70;;;8.10;;
7128;SDS011;3606;52.930;8.644;2023-07-22T02:05:09;12.77;;;7.87;;
7128;SDS011;3606;52.930;8.644;2023-07-22T02:07:35;16.90;;;8.67;;
7128;SDS011;3606;52.930;8.644;2023-07-22T02:10:01;12.70;;;8.17;;
7128;SDS011;3606;52.930;8.644;2023-07-22T02:12:26;16.80;;;8.10;;
7128;SDS011;3606;52.930;8.644;2023-07-22T02:14:52;16.73;;;9.77;;
7128;SDS011;3606;52.930;8.644;2023-07-22T02:17:17;12.93;;;8.33;;
7128;SDS011;3606;52.930;8.644;2023-07-22T02:19:43;16.20;;;8.53;;
7128;SDS011;3606;52.930;8.644;2023-07-22T02:22:09;18.93;;;9.00;;
7128;SDS011;3606;52.930;8.644;2023-07-22T02:24:34;19.37;;;8.80;;
7128;SDS011;3606;52.930;8.644;2023-07-22T02:27:00;17.07;;;8.97;;
7128;SDS011;3606;52.930;8.644;2023-07-22T02:29:26;14.87;;;8.67;;
7128;SDS011;3606;52.930;8.644;2023-07-22T02:31:51;15.20;;;8.30;;
7128;SDS011;3606;52.930;8.644;2023-07-22T02:34:17;16.07;;;8.77;;
7128;SDS011;3606;52.930;8.644;2023-07-22T02:36:42;14.60;;;8.30;;
7128;SDS011;3606;52.930;8.644;2023-07-22T02:39:08;16.73;;;8.67;;
7128;SDS011;3606;52.930;8.644;2023-07-22T02:41:36;19.67;;;8.73;;
7128;SDS011;3606;52.930;8.644;2023-07-22T02:44:02;13.90;;;8.40;;
7128;SDS011;3606;52.930;8.644;2023-07-22T02:46:31;16.57;;;9.17;;
7128;SDS011;3606;52.930;8.644;2023-07-22T02:48:57;11.07;;;8.23;;
7128;SDS011;3606;52.930;8.644;2023-07-22T02:51:24;19.33;;;9.97;;
7128;SDS011;3606;52.930;8.644;2023-07-22T02:53:49;18.53;;;9.93;;
7128;SDS011;3606;52.930;8.644;2023-07-22T02:56:15;16.27;;;9.23;;
7128;SDS011;3606;52.930;8.644;2023-07-22T02:58:41;20.47;;;9.20;;
7128;SDS011;3606;52.930;8.644;2023-07-22T03:01:07;16.77;;;8.97;;
7128;SDS011;3606;52.930;8.644;2023-07-22T03:03:33;20.67;;;8.67;;
7128;SDS011;3606;52.930;8.644;2023-07-22T03:06:03;19.90;;;9.87;;
7128;SDS011;3606;52.930;8.644;2023-07-22T03:08:29;18.50;;;9.03;;
7128;SDS011;3606;52.930;8.644;2023-07-22T03:10:55;20.17;;;9.77;;
7128;SDS011;3606;52.930;8.644;2023-07-22T03:13:20;20.47;;;10.60;;
7128;SDS011;3606;52.930;8.644;2023-07-22T03:15:46;18.90;;;9.83;;
7128;SDS011;3606;52.930;8.644;2023-07-22T03:18:12;21.50;;;10.20;;
7128;SDS011;3606;52.930;8.644;2023-07-22T03:20:37;19.27;;;10.60;;
7128;SDS011;3606;52.930;8.644;2023-07-22T03:23:04;17.03;;;9.30;;
7128;SDS011;3606;52.930;8.644;2023-07-22T03:25:30;18.53;;;8.63;;
7128;SDS011;3606;52.930;8.644;2023-07-22T03:27:56;23.60;;;9.57;;
7128;SDS011;3606;52.930;8.644;2023-07-22T03:30:22;17.47;;;9.37;;
7128;SDS011;3606;52.930;8.644;2023-07-22T03:32:48;13.63;;;8.70;;
7128;SDS011;3606;52.930;8.644;2023-07-22T03:35:15;17.07;;;9.80;;
7128;SDS011;3606;52.930;8.644;2023-07-22T03:37:44;19.60;;;10.10;;
7128;SDS011;3606;52.930;8.644;2023-07-22T03:40:10;20.23;;;9.63;;
7128;SDS011;3606;52.930;8.644;2023-07-22T03:42:39;21.53;;;9.20;;
7128;SDS011;3606;52.930;8.644;2023-07-22T03:45:05;22.97;;;9.93;;
7128;SDS011;3606;52.930;8.644;2023-07-22T03:47:32;20.53;;;10.03;;
7128;SDS011;3606;52.930;8.644;2023-07-22T03:49:58;16.40;;;8.93;;
7128;SDS011;3606;52.930;8.644;2023-07-22T03:52:23;19.03;;;9.33;;
7128;SDS011;3606;52.930;8.644;2023-07-22T03:54:49;20.93;;;10.03;;
7128;SDS011;3606;52.930;8.644;2023-07-22T03:57:14;16.93;;;9.53;;
7128;SDS011;3606;52.930;8.644;2023-07-22T03:59:40;16.33;;;9.60;;
7128;SDS011;3606;52.930;8.644;2023-07-22T04:02:05;21.23;;;9.63;;
7128;SDS011;3606;52.930;8.644;2023-07-22T04:04:31;22.07;;;9.47;;
7128;SDS011;3606;52.930;8.644;2023-07-22T04:06:57;19.33;;;10.13;;
7128;SDS011;3606;52.930;8.644;2023-07-22T04:09:22;21.40;;;10.63;;
7128;SDS011;3606;52.930;8.644;2023-07-22T04:11:48;17.63;;;9.80;;
7128;SDS011;3606;52.930;8.644;2023-07-22T04:14:13;20.80;;;10.03;;
7128;SDS011;3606;52.930;8.644;2023-07-22T04:16:39;16.77;;;9.90;;
7128;SDS011;3606;52.930;8.644;2023-07-22T04:19:05;21.77;;;10.13;;
7128;SDS011;3606;52.930;8.644;2023-07-22T04:21:31;19.30;;;10.87;;
7128;SDS011;3606;52.930;8.644;2023-07-22T04:23:56;26.20;;;11.23;;
7128;SDS011;3606;52.930;8.644;2023-07-22T04:26:22;25.80;;;10.23;;
7128;SDS011;3606;52.930;8.644;2023-07-22T04:28:47;20.63;;;11.23;;
7128;SDS011;3606;52.930;8.644;2023-07-22T04:31:13;20.87;;;10.90;;
7128;SDS011;3606;52.930;8.644;2023-07-22T04:33:39;19.00;;;10.30;;
7128;SDS011;3606;52.930;8.644;2023-07-22T04:36:06;22.33;;;10.80;;
7128;SDS011;3606;52.930;8.644;2023-07-22T04:38:32;21.67;;;11.10;;
7128;SDS011;3606;52.930;8.644;2023-07-22T04:40:57;19.83;;;10.53;;
7128;SDS011;3606;52.930;8.644;2023-07-22T04:43:25;18.23;;;10.83;;
7128;SDS011;3606;52.930;8.644;2023-07-22T04:45:51;19.13;;;10.57;;
7128;SDS011;3606;52.930;8.644;2023-07-22T04:48:19;22.40;;;10.73;;
7128;SDS011;3606;52.930;8.644;2023-07-22T04:50:46;21.77;;;11.47;;
7128;SDS011;3606;52.930;8.644;2023-07-22T04:53:15;18.57;;;10.27;;
7128;SDS011;3606;52.930;8.644;2023-07-22T04:55:41;19.90;;;10.43;;
7128;SDS011;3606;52.930;8.644;2023-07-22T04:58:07;23.50;;;11.20;;
7128;SDS011;3606;52.930;8.644;2023-07-22T05:00:34;20.07;;;10.60;;
7128;SDS011;3606;52.930;8.644;2023-07-22T05:03:00;15.93;;;10.40;;
7128;SDS011;3606;52.930;8.644;2023-07-22T05:05:25;22.33;;;10.27;;
7128;SDS011;3606;52.930;8.644;2023-07-22T05:07:51;21.17;;;10.60;;
7128;SDS011;3606;52.930;8.644;2023-07-22T05:10:17;13.03;;;8.97;;
7128;SDS011;3606;52.930;8.644;2023-07-22T05:12:44;23.43;;;10.33;;
7128;SDS011;3606;52.930;8.644;2023-07-22T05:15:10;19.57;;;10.27;;
7128;SDS011;3606;52.930;8.644;2023-07-22T05:17:36;21.63;;;10.90;;
7128;SDS011;3606;52.930;8.644;2023-07-22T05:20:03;16.17;;;10.13;;
7128;SDS011;3606;52.930;8.644;2023-07-22T05:22:31;16.63;;;10.00;;
7128;SDS011;3606;52.930;8.644;2023-07-22T05:24:57;20.57;;;9.80;;
7128;SDS011;3606;52.930;8.644;2023-07-22T05:27:24;18.47;;;9.63;;
7128;SDS011;3606;52.930;8.644;2023-07-22T05:29:50;20.17;;;9.23;;
7128;SDS011;3606;52.930;8.644;2023-07-22T05:32:15;17.77;;;9.80;;
7128;SDS011;3606;52.930;8.644;2023-07-22T05:34:41;16.23;;;8.90;;
7128;SDS011;3606;52.930;8.644;2023-07-22T05:37:06;21.83;;;9.30;;
7128;SDS011;3606;52.930;8.644;2023-07-22T05:39:32;16.40;;;8.97;;
7128;SDS011;3606;52.930;8.644;2023-07-22T05:41:57;15.30;;;9.17;;
7128;SDS011;3606;52.930;8.644;2023-07-22T05:44:23;14.63;;;7.83;;
7128;SDS011;3606;52.930;8.644;2023-07-22T05:46:48;14.40;;;8.70;;
7128;SDS011;3606;52.930;8.644;2023-07-22T05:49:14;13.43;;;8.73;;
7128;SDS011;3606;52.930;8.644;2023-07-22T05:51:40;11.47;;;7.93;;
7128;SDS011;3606;52.930;8.644;2023-07-22T05:54:05;11.60;;;7.70;;
7128;SDS011;3606;52.930;8.644;2023-07-22T05:56:31;12.43;;;8.20;;
7128;SDS011;3606;52.930;8.644;2023-07-22T05:58:57;14.47;;;8.70;;
7128;SDS011;3606;52.930;8.644;2023-07-22T06:01:23;13.13;;;7.60;;
7128;SDS011;3606;52.930;8.644;2023-07-22T06:03:49;12.97;;;7.47;;
7128;SDS011;3606;52.930;8.644;2023-07-22T06:06:15;17.50;;;8.00;;
7128;SDS011;3606;52.930;8.644;2023-07-22T06:08:41;13.23;;;7.47;;
7128;SDS011;3606;52.930;8.644;2023-07-22T06:11:07;11.10;;;7.53;;
7128;SDS011;3606;52.930;8.644;2023-07-22T06:13:32;11.20;;;7.37;;
7128;SDS011;3606;52.930;8.644;2023-07-22T06:15:58;12.30;;;7.10;;
7128;SDS011;3606;52.930;8.644;2023-07-22T06:18:23;12.23;;;6.77;;
7128;SDS011;3606;52.930;8.644;2023-07-22T06:20:49;10.13;;;6.80;;
7128;SDS011;3606;52.930;8.644;2023-07-22T06:23:15;9.63;;;6.27;;
7128;SDS011;3606;52.930;8.644;2023-07-22T06:25:40;10.57;;;6.07;;
7128;SDS011;3606;52.930;8.644;2023-07-22T06:28:06;8.83;;;6.23;;
7128;SDS011;3606;52.930;8.644;2023-07-22T06:30:32;9.53;;;5.97;;
7128;SDS011;3606;52.930;8.644;2023-07-22T06:32:57;12.50;;;6.20;;
7128;SDS011;3606;52.930;8.644;2023-07-22T06:35:23;10.60;;;6.40;;
7128;SDS011;3606;52.930;8.644;2023-07-22T06:37:48;9.17;;;6.00;;
7128;SDS011;3606;52.930;8.644;2023-07-22T06:40:14;8.43;;;5.80;;
7128;SDS011;3606;52.930;8.644;2023-07-22T06:42:39;9.40;;;6.23;;
7128;SDS011;3606;52.930;8.644;2023-07-22T06:45:05;10.83;;;5.63;;
7128;SDS011;3606;52.930;8.644;2023-07-22T06:47:31;12.43;;;6.00;;
7128;SDS011;3606;52.930;8.644;2023-07-22T06:49:57;8.60;;;5.60;;
7128;SDS011;3606;52.930;8.644;2023-07-22T06:52:23;10.47;;;5.97;;
7128;SDS011;3606;52.930;8.644;2023-07-22T06:54:48;11.30;;;6.00;;
7128;SDS011;3606;52.930;8.644;2023-07-22T06:57:14;9.50;;;6.03;;
7128;SDS011;3606;52.930;8.644;2023-07-22T06:59:40;8.37;;;6.07;;
7128;SDS011;3606;52.930;8.644;2023-07-22T07:02:06;8.57;;;5.97;;
7128;SDS011;3606;52.930;8.644;2023-07-22T07:04:32;9.43;;;5.97;;
7128;SDS011;3606;52.930;8.644;2023-07-22T07:06:57;10.17;;;5.37;;
7128;SDS011;3606;52.930;8.644;2023-07-22T07:09:24;10.03;;;6.20;;
7128;SDS011;3606;52.930;8.644;2023-07-22T07:11:50;10.53;;;6.63;;
7128;SDS011;3606;52.930;8.644;2023-07-22T07:14:16;9.70;;;5.60;;
7128;SDS011;3606;52.930;8.644;2023-07-22T07:16:42;7.83;;;5.60;;
7128;SDS011;3606;52.930;8.644;2023-07-22T07:19:08;12.53;;;4.90;;
7128;SDS011;3606;52.930;8.644;2023-07-22T07:21:34;7.27;;;4.93;;
7128;SDS011;3606;52.930;8.644;2023-07-22T07:24:00;6.70;;;4.57;;
7128;SDS011;3606;52.930;8.644;2023-07-22T07:26:26;8.17;;;4.57;;
7128;SDS011;3606;52.930;8.644;2023-07-22T07:28:52;8.00;;;5.13;;
7128;SDS011;3606;52.930;8.644;2023-07-22T07:31:18;6.40;;;4.40;;
7128;SDS011;3606;52.930;8.644;2023-07-22T07:33:44;7.50;;;4.73;;
7128;SDS011;3606;52.930;8.644;2023-07-22T07:36:09;5.80;;;4.20;;
7128;SDS011;3606;52.930;8.644;2023-07-22T07:38:35;4.87;;;3.90;;
7128;SDS011;3606;52.930;8.644;2023-07-22T07:41:04;5.30;;;4.17;;
7128;SDS011;3606;52.930;8.644;2023-07-22T07:43:33;5.83;;;4.17;;
7128;SDS011;3606;52.930;8.644;2023-07-22T07:48:47;4.93;;;3.70;;
7128;SDS011;3606;52.930;8.644;2023-07-22T07:51:15;5.97;;;3.73;;
7128;SDS011;3606;52.930;8.644;2023-07-22T07:53:41;4.93;;;3.40;;
7128;SDS011;3606;52.930;8.644;2023-07-22T07:56:09;6.43;;;3.80;;
7128;SDS011;3606;52.930;8.644;2023-07-22T07:58:35;5.87;;;3.80;;
7128;SDS011;3606;52.930;8.644;2023-07-22T08:01:01;6.47;;;3.50;;
7128;SDS011;3606;52.930;8.644;2023-07-22T08:03:27;5.70;;;3.93;;
7128;SDS011;3606;52.930;8.644;2023-07-22T08:05:53;7.53;;;4.00;;
7128;SDS011;3606;52.930;8.644;2023-07-22T08:08:19;5.17;;;4.13;;
7128;SDS011;3606;52.930;8.644;2023-07-22T08:10:45;8.50;;;4.77;;
7128;SDS011;3606;52.930;8.644;2023-07-22T08:13:10;6.87;;;4.23;;
7128;SDS011;3606;52.930;8.644;2023-07-22T08:15:36;8.33;;;5.03;;
7128;SDS011;3606;52.930;8.644;2023-07-22T08:18:02;9.90;;;4.97;;
7128;SDS011;3606;52.930;8.644;2023-07-22T08:20:28;8.57;;;5.10;;
7128;SDS011;3606;52.930;8.644;2023-07-22T08:22:54;6.50;;;5.10;;
7128;SDS011;3606;52.930;8.644;2023-07-22T08:25:20;8.53;;;5.50;;
7128;SDS011;3606;52.930;8.644;2023-07-22T08:27:46;11.97;;;5.73;;
7128;SDS011;3606;52.930;8.644;2023-07-22T08:30:12;9.67;;;6.13;;
7128;SDS011;3606;52.930;8.644;2023-07-22T08:32:37;8.97;;;6.30;;
7128;SDS011;3606;52.930;8.644;2023-07-22T08:35:03;10.77;;;6.30;;
7128;SDS011;3606;52.930;8.644;2023-07-22T08:37:30;10.17;;;6.20;;
7128;SDS011;3606;52.930;8.644;2023-07-22T08:39:56;11.27;;;6.27;;
7128;SDS011;3606;52.930;8.644;2023-07-22T08:42:22;10.80;;;6.50;;
7128;SDS011;3606;52.930;8.644;2023-07-22T08:44:49;10.97;;;6.97;;
7128;SDS011;3606;52.930;8.644;2023-07-22T08:47:21;13.53;;;7.37;;
7128;SDS011;3606;52.930;8.644;2023-07-22T08:49:50;13.33;;;7.70;;
7128;SDS011;3606;52.930;8.644;2023-07-22T08:52:18;10.90;;;7.07;;
7128;SDS011;3606;52.930;8.644;2023-07-22T08:54:44;9.20;;;6.60;;
7128;SDS011;3606;52.930;8.644;2023-07-22T08:57:11;13.23;;;7.60;;
7128;SDS011;3606;52.930;8.644;2023-07-22T08:59:37;11.03;;;7.07;;
7128;SDS011;3606;52.930;8.644;2023-07-22T09:02:03;8.43;;;6.90;;
7128;SDS011;3606;52.930;8.644;2023-07-22T09:04:30;11.53;;;7.00;;
7128;SDS011;3606;52.930;8.644;2023-07-22T09:06:55;9.50;;;6.97;;
7128;SDS011;3606;52.930;8.644;2023-07-22T09:09:21;8.27;;;7.15;;
7128;SDS011;3606;52.930;8.644;2023-07-22T09:11:49;10.07;;;7.18;;
7128;SDS011;3606;52.930;8.644;2023-07-22T09:14:17;8.93;;;7.07;;
7128;SDS011;3606;52.930;8.644;2023-07-22T09:16:44;12.68;;;7.68;;
7128;SDS011;3606;52.930;8.644;2023-07-22T09:19:09;10.70;;;7.13;;
7128;SDS011;3606;52.930;8.644;2023-07-22T09:21:35;9.73;;;6.15;;
7128;SDS011;3606;52.930;8.644;2023-07-22T09:24:01;9.05;;;6.95;;
7128;SDS011;3606;52.930;8.644;2023-07-22T09:26:27;8.60;;;6.90;;
7128;SDS011;3606;52.930;8.644;2023-07-22T09:28:57;7.97;;;6.55;;
7128;SDS011;3606;52.930;8.644;2023-07-22T09:31:26;9.18;;;6.53;;
7128;SDS011;3606;52.930;8.644;2023-07-22T09:33:53;7.25;;;6.18;;
7128;SDS011;3606;52.930;8.644;2023-07-22T09:36:19;9.30;;;6.50;;
7128;SDS011;3606;52.930;8.644;2023-07-22T09:38:47;10.33;;;7.97;;
7128;SDS011;3606;52.930;8.644;2023-07-22T09:41:28;10.47;;;6.93;;
7128;SDS011;3606;52.930;8.644;2023-07-22T09:43:55;9.50;;;7.07;;
7128;SDS011;3606;52.930;8.644;2023-07-22T09:46:21;10.50;;;6.60;;
7128;SDS011;3606;52.930;8.644;2023-07-22T09:48:55;9.30;;;7.03;;
7128;SDS011;3606;52.930;8.644;2023-07-22T09:51:21;8.70;;;6.57;;
7128;SDS011;3606;52.930;8.644;2023-07-22T09:53:47;9.40;;;6.60;;
7128;SDS011;3606;52.930;8.644;2023-07-22T09:56:24;8.67;;;6.87;;
7128;SDS011;3606;52.930;8.644;2023-07-22T09:58:49;11.40;;;6.88;;
7128;SDS011;3606;52.930;8.644;2023-07-22T10:01:16;14.20;;;6.95;;
7128;SDS011;3606;52.930;8.644;2023-07-22T10:03:45;8.35;;;6.25;;
7128;SDS011;3606;52.930;8.644;2023-07-22T10:06:11;12.15;;;6.50;;
7128;SDS011;3606;52.930;8.644;2023-07-22T10:08:39;7.15;;;5.95;;
7128;SDS011;3606;52.930;8.644;2023-07-22T10:11:08;8.32;;;6.10;;
7128;SDS011;3606;52.930;8.644;2023-07-22T10:13:36;9.45;;;6.13;;
7128;SDS011;3606;52.930;8.644;2023-07-22T10:16:02;8.40;;;5.82;;
7128;SDS011;3606;52.930;8.644;2023-07-22T10:18:28;7.13;;;5.40;;
7128;SDS011;3606;52.930;8.644;2023-07-22T10:20:55;10.38;;;5.80;;
7128;SDS011;3606;52.930;8.644;2023-07-22T10:23:22;10.67;;;6.57;;
7128;SDS011;3606;52.930;8.644;2023-07-22T10:25:50;11.17;;;6.47;;
7128;SDS011;3606;52.930;8.644;2023-07-22T10:28:16;8.33;;;5.47;;
7128;SDS011;3606;52.930;8.644;2023-07-22T10:30:43;9.53;;;6.17;;
7128;SDS011;3606;52.930;8.644;2023-07-22T10:33:08;8.17;;;5.63;;
7128;SDS011;3606;52.930;8.644;2023-07-22T10:35:40;7.83;;;6.10;;
7128;SDS011;3606;52.930;8.644;2023-07-22T10:38:11;7.20;;;5.60;;
7128;SDS011;3606;52.930;8.644;2023-07-22T10:40:45;8.88;;;6.15;;
7128;SDS011;3606;52.930;8.644;2023-07-22T10:43:12;6.90;;;5.50;;
7128;SDS011;3606;52.930;8.644;2023-07-22T10:45:40;7.05;;;4.90;;
7128;SDS011;3606;52.930;8.644;2023-07-22T10:48:08;6.00;;;4.77;;
7128;SDS011;3606;52.930;8.644;2023-07-22T10:50:44;6.72;;;5.25;;
7128;SDS011;3606;52.930;8.644;2023-07-22T11:06:57;6.10;;;4.55;;
7128;SDS011;3606;52.930;8.644;2023-07-22T11:11:58;5.55;;;4.20;;
7128;SDS011;3606;52.930;8.644;2023-07-22T11:14:24;7.45;;;4.60;;
7128;SDS011;3606;52.930;8.644;2023-07-22T11:16:51;6.90;;;3.88;;
7128;SDS011;3606;52.930;8.644;2023-07-22T11:19:19;4.97;;;4.45;;
7128;SDS011;3606;52.930;8.644;2023-07-22T11:21:45;6.43;;;4.60;;
7128;SDS011;3606;52.930;8.644;2023-07-22T11:24:12;7.05;;;4.90;;
7128;SDS011;3606;52.930;8.644;2023-07-22T11:26:39;4.82;;;3.97;;
7128;SDS011;3606;52.930;8.644;2023-07-22T11:29:08;5.53;;;4.35;;
7128;SDS011;3606;52.930;8.644;2023-07-22T11:31:35;9.68;;;4.47;;
7128;SDS011;3606;52.930;8.644;2023-07-22T11:34:02;5.93;;;4.00;;
7128;SDS011;3606;52.930;8.644;2023-07-22T11:36:28;5.72;;;4.45;;
7128;SDS011;3606;52.930;8.644;2023-07-22T11:38:54;5.78;;;4.78;;
7128;SDS011;3606;52.930;8.644;2023-07-22T11:41:26;7.60;;;4.68;;
7128;SDS011;3606;52.930;8.644;2023-07-22T11:43:51;5.68;;;4.40;;
7128;SDS011;3606;52.930;8.644;2023-07-22T11:46:17;5.75;;;5.10;;
7128;SDS011;3606;52.930;8.644;2023-07-22T11:48:52;7.20;;;4.85;;
7128;SDS011;3606;52.930;8.644;2023-07-22T11:51:22;6.10;;;5.10;;
7128;SDS011;3606;52.930;8.644;2023-07-22T11:53:53;6.73;;;4.20;;
7128;SDS011;3606;52.930;8.644;2023-07-22T11:58:52;5.80;;;4.40;;
7128;SDS011;3606;52.930;8.644;2023-07-22T12:01:19;5.93;;;4.63;;
7128;SDS011;3606;52.930;8.644;2023-07-22T12:03:45;7.03;;;4.93;;
7128;SDS011;3606;52.930;8.644;2023-07-22T12:06:11;5.38;;;4.00;;
7128;SDS011;3606;52.930;8.644;2023-07-22T12:08:45;5.00;;;4.20;;
7128;SDS011;3606;52.930;8.644;2023-07-22T12:11:15;5.80;;;4.35;;
7128;SDS011;3606;52.930;8.644;2023-07-22T12:13:42;6.53;;;4.83;;
7128;SDS011;3606;52.930;8.644;2023-07-22T12:16:11;5.37;;;4.50;;
7128;SDS011;3606;52.930;8.644;2023-07-22T12:18:40;6.27;;;4.63;;
7128;SDS011;3606;52.930;8.644;2023-07-22T12:21:09;5.37;;;4.47;;
7128;SDS011;3606;52.930;8.644;2023-07-22T12:23:35;5.27;;;4.40;;
7128;SDS011;3606;52.930;8.644;2023-07-22T12:26:02;5.53;;;4.37;;
7128;SDS011;3606;52.930;8.644;2023-07-22T12:28:27;4.87;;;4.37;;
7128;SDS011;3606;52.930;8.644;2023-07-22T12:30:53;4.73;;;4.23;;
7128;SDS011;3606;52.930;8.644;2023-07-22T12:33:19;4.93;;;4.40;;
7128;SDS011;3606;52.930;8.644;2023-07-22T12:35:45;5.37;;;4.17;;
7128;SDS011;3606;52.930;8.644;2023-07-22T12:38:10;5.93;;;4.30;;
7128;SDS011;3606;52.930;8.644;2023-07-22T12:40:36;7.90;;;4.10;;
7128;SDS011;3606;52.930;8.644;2023-07-22T12:43:03;5.13;;;4.27;;
7128;SDS011;3606;52.930;8.644;2023-07-22T12:45:28;4.67;;;3.83;;
7128;SDS011;3606;52.930;8.644;2023-07-22T12:47:54;6.07;;;4.30;;
7128;SDS011;3606;52.930;8.644;2023-07-22T12:50:20;5.03;;;4.40;;
7128;SDS011;3606;52.930;8.644;2023-07-22T12:52:45;4.97;;;4.20;;
7128;SDS011;3606;52.930;8.644;2023-07-22T12:55:11;4.77;;;3.93;;
7128;SDS011;3606;52.930;8.644;2023-07-22T12:57:36;5.60;;;4.10;;
7128;SDS011;3606;52.930;8.644;2023-07-22T13:00:02;4.80;;;4.20;;
7128;SDS011;3606;52.930;8.644;2023-07-22T13:02:31;6.17;;;4.07;;
7128;SDS011;3606;52.930;8.644;2023-07-22T13:04:57;10.60;;;5.82;;
7128;SDS011;3606;52.930;8.644;2023-07-22T13:07:23;6.80;;;4.47;;
7128;SDS011;3606;52.930;8.644;2023-07-22T13:09:48;4.32;;;3.72;;
7128;SDS011;3606;52.930;8.644;2023-07-22T13:12:19;7.53;;;4.57;;
7128;SDS011;3606;52.930;8.644;2023-07-22T13:14:45;6.97;;;4.60;;
7128;SDS011;3606;52.930;8.644;2023-07-22T13:17:11;5.73;;;4.43;;
7128;SDS011;3606;52.930;8.644;2023-07-22T13:19:36;5.47;;;4.70;;
7128;SDS011;3606;52.930;8.644;2023-07-22T13:22:02;8.00;;;5.00;;
7128;SDS011;3606;52.930;8.644;2023-07-22T13:24:28;6.93;;;5.10;;
7128;SDS011;3606;52.930;8.644;2023-07-22T13:26:53;8.50;;;5.63;;
7128;SDS011;3606;52.930;8.644;2023-07-22T13:29:19;9.63;;;5.73;;
7128;SDS011;3606;52.930;8.644;2023-07-22T13:31:45;6.93;;;5.43;;
7128;SDS011;3606;52.930;8.644;2023-07-22T13:34:10;7.90;;;5.40;;
7128;SDS011;3606;52.930;8.644;2023-07-22T13:36:36;7.10;;;5.67;;
7128;SDS011;3606;52.930;8.644;2023-07-22T13:39:01;6.97;;;5.57;;
7128;SDS011;3606;52.930;8.644;2023-07-22T13:41:27;6.23;;;5.60;;
7128;SDS011;3606;52.930;8.644;2023-07-22T13:43:53;6.80;;;5.67;;
7128;SDS011;3606;52.930;8.644;2023-07-22T13:46:19;7.83;;;5.93;;
7128;SDS011;3606;52.930;8.644;2023-07-22T13:48:45;8.67;;;6.30;;
7128;SDS011;3606;52.930;8.644;2023-07-22T13:51:10;11.03;;;7.03;;
7128;SDS011;3606;52.930;8.644;2023-07-22T13:53:36;12.30;;;8.77;;
7128;SDS011;3606;52.930;8.644;2023-07-22T13:56:01;12.17;;;8.67;;
7128;SDS011;3606;52.930;8.644;2023-07-22T13:58:28;12.50;;;8.93;;
7128;SDS011;3606;52.930;8.644;2023-07-22T14:00:53;11.87;;;9.17;;
7128;SDS011;3606;52.930;8.644;2023-07-22T14:03:19;13.87;;;9.80;;
7128;SDS011;3606;52.930;8.644;2023-07-22T14:05:44;12.27;;;10.30;;
7128;SDS011;3606;52.930;8.644;2023-07-22T14:08:11;13.43;;;10.20;;
7128;SDS011;3606;52.930;8.644;2023-07-22T14:10:36;14.67;;;11.00;;
7128;SDS011;3606;52.930;8.644;2023-07-22T14:13:02;16.30;;;11.43;;
7128;SDS011;3606;52.930;8.644;2023-07-22T14:15:28;16.90;;;11.50;;
7128;SDS011;3606;52.930;8.644;2023-07-22T14:17:53;15.17;;;11.40;;
7128;SDS011;3606;52.930;8.644;2023-07-22T14:20:19;16.07;;;11.60;;
7128;SDS011;3606;52.930;8.644;2023-07-22T14:22:44;16.37;;;11.67;;
7128;SDS011;3606;52.930;8.644;2023-07-22T14:25:10;18.17;;;11.77;;
7128;SDS011;3606;52.930;8.644;2023-07-22T14:27:37;15.67;;;10.97;;
7128;SDS011;3606;52.930;8.644;2023-07-22T14:30:05;14.77;;;10.97;;
7128;SDS011;3606;52.930;8.644;2023-07-22T14:32:31;17.23;;;12.47;;
7128;SDS011;3606;52.930;8.644;2023-07-22T14:34:57;15.30;;;11.30;;
7128;SDS011;3606;52.930;8.644;2023-07-22T14:37:22;18.67;;;11.90;;
7128;SDS011;3606;52.930;8.644;2023-07-22T14:39:48;20.07;;;13.87;;
7128;SDS011;3606;52.930;8.644;2023-07-22T14:42:14;18.07;;;13.33;;
7128;SDS011;3606;52.930;8.644;2023-07-22T14:44:40;16.57;;;12.73;;
7128;SDS011;3606;52.930;8.644;2023-07-22T14:47:05;16.37;;;12.30;;
7128;SDS011;3606;52.930;8.644;2023-07-22T14:49:31;19.00;;;12.43;;
7128;SDS011;3606;52.930;8.644;2023-07-22T14:51:57;17.80;;;13.17;;
7128;SDS011;3606;52.930;8.644;2023-07-22T14:54:22;19.63;;;13.67;;
7128;SDS011;3606;52.930;8.644;2023-07-22T14:56:48;18.80;;;13.57;;
7128;SDS011;3606;52.930;8.644;2023-07-22T14:59:14;16.93;;;13.03;;
7128;SDS011;3606;52.930;8.644;2023-07-22T15:01:41;17.03;;;12.70;;
7128;SDS011;3606;52.930;8.644;2023-07-22T15:04:07;20.90;;;13.80;;
7128;SDS011;3606;52.930;8.644;2023-07-22T15:06:33;20.97;;;12.93;;
7128;SDS011;3606;52.930;8.644;2023-07-22T15:09:03;16.13;;;12.93;;
7128;SDS011;3606;52.930;8.644;2023-07-22T15:11:35;16.90;;;12.97;;
7128;SDS011;3606;52.930;8.644;2023-07-22T15:14:01;21.80;;;14.70;;
7128;SDS011;3606;52.930;8.644;2023-07-22T15:16:30;17.90;;;13.27;;
7128;SDS011;3606;52.930;8.644;2023-07-22T15:18:56;18.60;;;13.80;;